Latest Weather Observations for Norfolk Island

IDN60801

Issued at 1:36 am EDT Sunday 21 December 2014 (issued every 30 minutes, with the page automatically refreshed every 10 minutes)

About weather observations | Map of weather stations | Latest weather observations for NSW | Other Formats
Station Details ID: 200288 Name: NORFOLK ISLAND AERO Lat: -29.04 Lon: 167.94 Height: 111.73 m
Data from the previous 72 hours. | See also: Recent months at Norfolk Island
Date/Time
EDT
Temp
°C
App
Temp
°C
Dew
Point
Rel
Hum
%
Delta-T
°C
Wind Press
QNH
hPa
Press
MSL
hPa
Rain
since 9 am
mm
Dir
 
Spd
km/h
Gust
km/h
Spd
kts
Gust
kts
21/01:30am 21.0 23.0 19.9 93 0.7 NE 9 11 5 6 1013.2 - 30.2
21/01:00am 20.9 24.1 19.8 93 0.7 NNE 2 9 1 5 1013.5 - 30.2
21/12:30am 20.9 23.9 20.1 95 0.5 NNE 4 9 2 5 1013.6 - 30.2
21/12:00am 21.1 23.8 20.2 95 0.6 NE 6 7 3 4 1013.9 - 30.2
 
Date/Time
EDT
Temp
°C
App
Temp
°C
Dew
Point
Rel
Hum
%
Delta-T
°C
Wind Press
QNH
hPa
Press
MSL
hPa
Rain
since 9 am
mm
Dir
 
Spd
km/h
Gust
km/h
Spd
kts
Gust
kts
20/11:30pm 21.5 23.7 20.4 93 0.7 NE 9 11 5 6 1014.4 1014.0 30.2
20/11:00pm 21.4 23.6 20.5 95 0.6 NE 9 13 5 7 1014.6 - 30.2
20/10:30pm 21.3 23.5 20.4 95 0.6 NE 9 13 5 7 1014.9 - 30.2
20/10:00pm 20.8 24.5 20.0 95 0.5 CALM 0 0 0 0 1014.8 - 30.2
20/09:30pm 21.1 25.0 20.3 95 0.5 CALM 0 0 0 0 1014.6 - 30.2
20/09:00pm 21.3 25.2 20.4 95 0.6 CALM 0 0 0 0 1014.3 - 30.2
20/08:30pm 21.6 23.8 20.4 93 0.8 E 9 9 5 5 1013.9 1013.6 30.2
20/08:04pm 21.8 23.7 20.6 93 0.8 ENE 11 15 6 8 1013.7 - 30.2
20/08:00pm 21.8 23.7 20.6 93 0.8 ENE 11 15 6 8 1013.7 - 30.2
20/07:30pm 22.3 23.7 21.1 93 0.8 ENE 15 19 8 10 1013.5 - 30.2
20/07:16pm 22.2 23.8 20.8 92 0.9 E 13 15 7 8 1013.5 - 30.2
20/07:00pm 22.3 23.8 20.6 90 1.1 E 13 19 7 10 1013.4 - 30.2
20/06:30pm 22.6 23.5 20.1 86 1.6 E 15 19 8 10 1013.0 - 30.2
20/06:00pm 23.2 23.4 18.6 75 2.9 ENE 15 20 8 11 1012.7 - 30.2
20/05:30pm 24.1 23.7 17.2 65 4.3 E 15 19 8 10 1012.4 1012.1 30.2
20/05:00pm 24.5 25.2 18.0 67 4.1 SE 11 17 6 9 1011.9 - 30.2
20/04:30pm 23.9 26.0 20.2 80 2.4 NE 9 13 5 7 1011.8 - 30.2
20/04:00pm 23.7 25.2 20.5 82 2.1 ENE 13 17 7 9 1011.7 - 30.2
20/03:30pm 23.4 24.9 20.6 84 1.8 NE 13 15 7 8 1012.0 - 30.2
20/03:00pm 24.2 25.8 19.9 77 2.8 E 11 15 6 8 1012.2 - 30.2
20/02:30pm 23.9 25.8 19.7 77 2.7 ESE 9 15 5 8 1012.3 1012.0 30.2
20/02:00pm 24.1 25.1 19.4 75 3.0 SSE 13 19 7 10 1012.0 - 30.2
20/01:00pm 23.2 24.4 20.0 82 2.1 S 13 17 7 9 1012.8 - 30.0
20/12:30pm 23.2 25.0 20.4 84 1.8 S 11 15 6 8 1012.9 - 30.0
20/12:00pm 23.4 25.3 20.6 84 1.8 WSW 11 17 6 9 1013.4 - 30.0
20/11:30am 23.0 25.2 21.2 89 1.2 W 11 17 6 9 1013.5 1013.2 30.0
20/11:14am 22.1 23.8 21.0 93 0.7 W 13 17 7 9 1013.6 - 30.0
20/11:00am 22.1 23.4 20.9 93 0.8 W 15 19 8 10 1013.6 - 30.0
20/10:30am 21.9 23.1 20.7 93 0.8 W 15 19 8 10 1013.6 - 30.0
20/10:25am 21.8 22.6 20.7 93 0.7 WSW 17 22 9 12 1013.5 - 30.0
20/10:12am 21.6 21.9 20.8 95 0.5 WSW 20 28 11 15 1013.5 - 30.0
20/10:00am 21.3 22.9 20.7 96 0.4 WNW 13 20 7 11 1013.6 - 30.0
20/09:50am 20.7 22.3 19.9 95 0.5 NNW 11 19 6 10 1013.4 - 30.0
20/09:30am 20.7 19.4 19.9 95 0.5 W 26 46 14 25 1013.5 - 28.4
20/09:19am 20.1 21.4 19.3 95 0.5 NNW 11 15 6 8 1013.1 - 25.4
20/09:12am 19.9 17.8 18.9 94 0.6 W 28 41 15 22 1013.0 - 23.2
20/09:00am 20.1 17.8 19.3 95 0.5 WNW 30 41 16 22 1012.9 - 11.0
20/08:57am 20.6 19.2 19.7 95 0.6 WNW 26 41 14 22 1013.1 - 7.4
20/08:48am 23.0 25.3 22.1 95 0.6 NW 13 19 7 10 1012.9 - 0.6
20/08:30am 23.3 25.3 22.3 94 0.7 NNW 15 22 8 12 1013.0 1012.7 1.8
20/08:21am 23.5 26.0 21.8 90 1.1 NNW 11 26 6 14 1013.1 - 0.6
20/08:00am 23.6 25.6 21.6 88 1.3 NNW 13 26 7 14 1013.3 - 0.2
20/07:30am 23.5 25.6 21.7 90 1.2 NNW 13 26 7 14 1013.1 - 0.2
20/07:00am 23.5 24.3 21.8 90 1.1 N 20 32 11 17 1013.0 - 0.2
20/06:30am 23.0 24.0 21.8 93 0.8 N 19 30 10 16 1012.7 - 0.2
20/06:00am 22.9 24.5 21.5 92 0.9 N 15 26 8 14 1012.6 - 0.2
20/05:30am 22.7 22.7 21.6 93 0.7 NNE 24 33 13 18 1012.2 1011.9 0.2
20/05:00am 22.6 23.5 21.5 93 0.7 N 19 33 10 18 1012.3 - 0.2
20/04:30am 22.6 23.3 21.5 93 0.7 N 20 33 11 18 1012.3 - 0.2
20/04:00am 22.5 22.7 21.4 93 0.7 N 22 32 12 17 1012.3 - 0.2
20/03:30am 22.4 23.1 21.5 95 0.6 NNE 20 32 11 17 1012.4 - 0.2
20/03:00am 22.5 22.7 21.4 93 0.7 N 22 33 12 18 1012.6 - 0.2
20/02:30am 22.4 23.1 21.5 95 0.6 NNE 20 30 11 16 1012.7 1012.4 0.2
20/02:00am 22.5 22.7 21.4 93 0.7 N 22 30 12 16 1013.0 - 0.2
20/01:30am 22.5 22.7 21.4 93 0.7 NNE 22 37 12 20 1013.1 - 0.2
20/01:00am 22.5 22.7 21.3 93 0.8 NNE 22 35 12 19 1013.2 - 0.2
20/12:30am 22.5 23.1 21.3 93 0.8 NNE 20 30 11 16 1013.5 - 0.2
20/12:29am 22.5 23.1 21.3 93 0.8 NNE 20 30 11 16 1013.5 - 0.2
20/12:20am 22.4 23.0 21.3 93 0.7 NNE 20 37 11 20 1013.6 - 0.2
20/12:00am 22.4 23.2 21.3 93 0.7 NNE 19 28 10 15 1013.7 - 0.2
 
Date/Time
EDT
Temp
°C
App
Temp
°C
Dew
Point
Rel
Hum
%
Delta-T
°C
Wind Press
QNH
hPa
Press
MSL
hPa
Rain
since 9 am
mm
Dir
 
Spd
km/h
Gust
km/h
Spd
kts
Gust
kts
19/11:30pm 22.6 23.3 21.5 93 0.7 NNE 20 33 11 18 1014.3 1013.9 0.2
19/11:00pm 22.7 23.4 21.6 93 0.7 NNE 20 33 11 18 1014.7 - 0.2
19/10:30pm 22.7 23.6 21.6 93 0.7 NNE 19 28 10 15 1015.0 - 0.2
19/10:00pm 22.8 24.2 21.9 95 0.6 NNE 17 30 9 16 1015.4 - 0.2
19/09:30pm 22.8 23.8 21.7 93 0.7 NNE 19 30 10 16 1015.3 - 0.2
19/09:00pm 22.9 24.1 21.5 92 0.9 NNE 17 26 9 14 1015.3 - 0.2
19/08:44pm 23.0 24.2 21.5 91 1.0 NNE 17 28 9 15 1015.1 - 0.2
19/08:30pm 22.9 24.1 21.4 91 1.0 NNE 17 26 9 14 1015.1 1014.7 0.2
19/08:00pm 22.9 24.1 21.4 91 1.0 NNE 17 22 9 12 1014.8 - 0.2
19/07:56pm 22.9 24.1 21.4 91 1.0 NNE 17 24 9 13 1014.8 - 0.2
19/07:30pm 22.9 24.1 21.5 92 0.9 NNE 17 24 9 13 1014.6 - 0.2
19/07:00pm 22.8 23.4 21.3 91 1.0 NE 20 30 11 16 1014.3 - 0.2
19/06:30pm 23.1 23.9 21.7 92 0.9 NNE 20 28 11 15 1013.9 - 0.2
19/06:25pm 23.1 24.4 21.7 92 0.9 NNE 17 26 9 14 1013.9 - 0.2
19/06:00pm 23.2 23.4 21.4 90 1.2 NNE 22 30 12 16 1013.8 - 0.2
19/05:30pm 24.0 23.9 21.4 85 1.7 NE 24 32 13 17 1013.3 1013.0 0.2
19/05:21pm 24.1 24.0 21.4 85 1.8 NE 24 33 13 18 1013.2 - 0.2
19/05:00pm 23.7 24.1 21.7 88 1.3 NNE 22 32 12 17 1013.2 - 0.2
19/04:30pm 24.0 25.0 21.7 87 1.5 NE 19 28 10 15 1013.2 - 0.2
19/04:00pm 24.2 25.2 21.8 86 1.6 NE 19 28 10 15 1013.4 - 0.2
19/03:30pm 24.4 25.2 21.7 85 1.8 ENE 20 26 11 14 1013.4 - 0.2
19/03:00pm 25.0 25.1 21.9 83 2.1 NE 24 32 13 17 1013.6 - 0.2
19/02:30pm 24.9 25.2 21.6 82 2.2 NE 22 28 12 15 1014.2 1013.8 0.2
19/02:01pm 24.5 24.4 21.5 83 2.0 NE 24 32 13 17 1014.7 - 0.2
19/01:30pm 24.8 25.5 21.2 80 2.4 NE 19 28 10 15 1015.0 - 0.2
19/01:00pm 25.2 25.8 21.4 79 2.5 NE 20 26 11 14 1015.2 - 0.2
19/12:30pm 24.7 25.2 21.1 80 2.4 NE 20 28 11 15 1015.3 - 0.2
19/12:00pm 24.7 25.4 21.2 81 2.3 NE 19 28 10 15 1015.6 - 0.2
19/11:30am 24.7 25.5 21.4 82 2.2 NE 19 26 10 14 1015.9 1015.5 0.2
19/11:00am 24.6 25.8 20.6 78 2.6 NE 15 20 8 11 1016.1 - 0.0
19/10:30am 24.6 25.1 21.1 81 2.3 ENE 20 26 11 14 1016.1 - 0.0
19/10:00am 24.1 23.8 20.4 80 2.4 ENE 22 32 12 17 1015.6 - 0.0
19/09:30am 24.3 24.1 20.5 79 2.5 ENE 22 32 12 17 1015.5 - 0.0
19/09:00am 24.1 23.7 20.1 78 2.6 ENE 22 28 12 15 1015.6 - 0.0
19/08:30am 23.6 23.9 20.5 83 2.0 NE 19 26 10 14 1015.8 1015.4 0.0
19/07:59am 23.5 23.6 20.3 82 2.1 ENE 20 26 11 14 1016.0 - 0.0
19/07:30am 22.8 23.5 20.5 87 1.5 ENE 17 24 9 13 1016.2 - 0.0
19/07:00am 22.2 22.4 20.2 88 1.3 ENE 19 26 10 14 1016.2 - 0.0
19/06:30am 21.8 21.9 19.9 89 1.2 ENE 19 26 10 14 1016.0 - 0.0
19/06:13am 21.6 21.5 19.6 88 1.3 ENE 19 24 10 13 1015.9 - 0.0
19/06:00am 21.6 21.8 19.4 87 1.4 ENE 17 24 9 13 1015.9 - 0.0
19/05:56am 21.3 21.5 19.4 89 1.2 ENE 17 24 9 13 1015.8 - 0.0
19/05:41am 20.8 21.7 19.2 90 1.0 E 13 19 7 10 1015.8 - 0.0
19/05:30am 20.5 21.3 19.1 92 0.9 E 13 17 7 9 1015.7 1015.3 0.0
19/05:00am 20.0 20.6 18.7 92 0.8 E 13 17 7 9 1015.4 - 0.0
19/04:34am 20.4 21.1 18.8 90 1.0 E 13 17 7 9 1015.0 - 0.0
19/04:30am 20.3 21.0 18.9 92 0.9 E 13 17 7 9 1015.0 - 0.0
19/04:03am 20.4 20.8 19.1 92 0.8 E 15 19 8 10 1015.3 - 0.0
19/04:00am 20.4 20.8 19.1 92 0.8 ENE 15 19 8 10 1015.3 - 0.0
19/03:59am 20.4 20.8 19.1 92 0.8 ENE 15 19 8 10 1015.2 - 0.0
19/03:43am 20.1 20.5 19.0 93 0.7 ENE 15 15 8 8 1015.4 - 0.0
19/03:30am 20.1 20.8 18.8 92 0.8 ENE 13 17 7 9 1015.4 - 0.0
19/03:00am 19.9 20.2 18.8 93 0.7 ENE 15 17 8 9 1015.3 - 0.0
19/02:30am 20.1 20.4 18.8 92 0.8 ENE 15 17 8 9 1015.7 1015.3 0.0
19/02:00am 20.7 22.6 19.0 90 1.1 ENE 7 9 4 5 1016.3 - 0.0
19/01:30am 20.2 21.7 18.8 92 0.9 ENE 9 11 5 6 1016.1 - 0.0
19/01:00am 20.5 21.1 18.6 89 1.2 ENE 13 15 7 8 1016.1 - 0.0
19/12:55am 20.7 21.4 18.8 89 1.2 ENE 13 15 7 8 1016.2 - 0.0
19/12:30am 20.9 21.3 19.0 89 1.2 ENE 15 17 8 9 1016.3 - 0.0
19/12:24am 21.0 21.4 18.9 88 1.3 ENE 15 20 8 11 1016.2 - 0.0
19/12:19am 21.0 21.0 18.9 88 1.3 ENE 17 20 9 11 1016.1 - 0.0
19/12:00am 21.0 21.0 18.9 88 1.3 ENE 17 22 9 12 1016.4 - 0.0
 
Date/Time
EDT
Temp
°C
App
Temp
°C
Dew
Point
Rel
Hum
%
Delta-T
°C
Wind Press
QNH
hPa
Press
MSL
hPa
Rain
since 9 am
mm
Dir
 
Spd
km/h
Gust
km/h
Spd
kts
Gust
kts
18/11:57pm 20.9 20.9 19.0 89 1.2 ENE 17 24 9 13 1016.4 - 0.0
18/11:30pm 20.8 21.2 18.9 89 1.2 ENE 15 19 8 10 1017.0 1016.6 0.0
18/11:00pm 21.0 21.3 18.8 87 1.4 ENE 15 22 8 12 1016.9 - 0.0
18/10:30pm 21.0 20.5 18.6 86 1.5 ENE 19 26 10 14 1016.9 - 0.0
18/10:00pm 21.1 20.6 18.6 86 1.6 ENE 19 26 10 14 1016.8 - 0.0
18/09:30pm 20.8 20.6 18.4 86 1.5 ENE 17 22 9 12 1016.9 - 0.0
18/09:00pm 20.0 19.9 17.9 88 1.3 E 15 17 8 9 1017.0 - 0.0
18/08:30pm 20.0 20.4 18.2 89 1.1 E 13 17 7 9 1016.9 1016.5 0.0
18/08:00pm 20.3 20.8 18.4 89 1.2 ENE 13 13 7 7 1017.1 - 0.0
18/07:30pm 20.4 21.3 18.3 88 1.3 E 11 11 6 6 1017.4 - 0.0
18/07:00pm 21.7 22.7 18.7 83 1.9 E 11 15 6 8 1017.5 - 0.0
18/06:30pm 22.2 23.1 18.4 79 2.4 SE 11 15 6 8 1017.5 - 0.0
18/06:00pm 22.6 23.3 18.0 75 2.9 ESE 11 15 6 8 1017.4 - 0.0
18/05:30pm 22.5 23.2 18.0 75 2.8 E 11 15 6 8 1017.1 1016.7 0.0
18/05:00pm 22.5 22.8 18.0 75 2.8 ENE 13 17 7 9 1017.0 - 0.0
18/04:30pm 22.9 24.4 18.1 74 3.0 ESE 7 9 4 5 1016.6 - 0.0
18/04:00pm 22.9 23.1 17.6 72 3.3 E 13 17 7 9 1016.4 - 0.0
18/03:30pm 23.1 23.5 18.2 74 3.1 ENE 13 15 7 8 1016.3 - 0.0
18/03:00pm 23.2 23.7 17.4 70 3.6 ENE 11 17 6 9 1016.2 - 0.0
18/02:30pm 23.0 23.2 17.7 72 3.3 E 13 17 7 9 1016.2 1015.8 0.0
18/02:00pm 23.2 23.5 17.9 72 3.3 NNE 13 17 7 9 1016.4 - 0.0
18/01:30pm 22.9 23.0 17.4 71 3.4 NNE 13 19 7 10 1016.5 - 0.0
18/01:00pm 23.1 23.5 17.3 70 3.6 NE 11 17 6 9 1016.5 - 0.0
18/12:30pm 22.9 24.2 18.5 76 2.8 E 9 15 5 8 1016.6 - 0.0
18/12:00pm 23.0 24.7 18.6 76 2.8 NNW 7 11 4 6 1016.7 - 0.0
18/11:30am 22.6 24.5 18.5 77 2.6 ESE 6 11 3 6 1016.8 1016.4 0.0
18/11:00am 22.1 22.7 18.6 80 2.2 SSE 13 15 7 8 1016.9 - 0.0
18/10:30am 21.8 22.7 18.5 81 2.1 SE 11 15 6 8 1016.9 - 0.0
18/10:00am 22.1 23.1 17.8 76 2.7 ESE 9 11 5 6 1016.9 - 0.0
18/09:30am 22.4 22.5 17.4 73 3.1 SSE 13 17 7 9 1016.7 - 0.0
18/09:00am 22.8 23.7 18.4 76 2.8 E 11 17 6 9 1016.6 - 0.0
18/08:30am 22.1 23.1 17.8 76 2.7 NNW 9 13 5 7 1016.5 1016.1 0.0
18/08:00am 23.2 25.0 17.4 70 3.6 E 4 9 2 5 1016.4 - 0.0
18/07:30am 22.5 24.2 18.0 75 2.8 N 6 7 3 4 1016.3 - 0.0
18/07:00am 21.8 23.4 17.8 78 2.5 N 6 9 3 5 1016.1 - 0.0
18/06:30am 21.8 23.4 18.3 80 2.2 N 7 9 4 5 1015.7 - 0.0
18/06:00am 21.0 24.3 19.1 89 1.2 CALM 0 0 0 0 1015.6 - 0.0
18/05:30am 19.1 22.0 18.1 94 0.6 CALM 0 0 0 0 1015.3 1014.9 0.0
18/05:00am 18.5 21.2 17.7 95 0.5 CALM 0 0 0 0 1014.9 - 0.0
18/04:30am 18.6 21.3 17.8 95 0.5 CALM 0 0 0 0 1014.6 - 0.0
18/04:00am 19.0 21.9 18.2 95 0.5 CALM 0 0 0 0 1014.2 - 0.0
18/03:30am 18.8 21.5 17.8 94 0.6 CALM 0 0 0 0 1013.8 - 0.0
18/03:00am 19.2 22.1 18.1 93 0.7 CALM 0 0 0 0 1013.7 - 0.0
18/02:30am 19.2 22.1 18.1 93 0.7 CALM 0 0 0 0 1013.6 1013.3 0.0
18/02:00am 19.0 21.8 17.9 93 0.7 CALM 0 0 0 0 1013.6 - 0.0
18/01:30am 18.6 21.3 17.8 95 0.5 CALM 0 0 0 0 1013.3 - 0.0

Other Formats:

Comma delimited format used in spreadsheet applications
http://www.bom.gov.au/fwo/IDN60801/IDN60801.94996.axf

JavaScript Object Notation format (JSON) in row-major order
http://www.bom.gov.au/fwo/IDN60801/IDN60801.94996.json